Date,TemperatureHighF,TemperatureAvgF,TemperatureLowF,DewpointHighF,DewpointAvgF,DewpointLowF,HumidityHigh,HumidityAvg,HumidityLow,PressureMaxIn,PressureMinIn,WindSpeedMaxMPH,WindSpeedAvgMPH,GustSpeedMaxMPH,PrecipitationSumIn
2012-1-1,54.9,45.3,32.5,45.5,39.1,31.2,97,80,57,30.14,29.71,18,2,18,0.04
2012-1-2,48.5,38.6,29.5,38.8,22.2,16.8,70,52,37,29.87,29.72,22,4,22,0.00
2012-1-3,32.6,25.7,15.5,21.9,9.4,-1.5,73,51,34,30.21,29.86,25,5,25,0.00
2012-1-4,30.3,21.1,11.9,15.6,5.7,-1.0,62,51,35,30.30,30.01,14,3,16,0.00
2012-1-5,42.4,31.8,23.8,24.7,20.8,15.1,84,64,48,30.02,29.90,18,2,19,0.00
2012-1-6,55.4,39.3,26.2,31.5,28.0,22.2,87,66,38,29.99,29.77,14,1,14,0.00
2012-1-7,66.7,46.3,28.3,40.1,32.7,26.5,94,64,32,30.02,29.73,20,2,20,0.00
2012-1-8,48.8,38.7,29.2,30.8,26.8,20.7,83,63,45,30.36,30.02,12,2,12,0.00
2012-1-9,43.4,33.7,26.1,25.6,21.5,18.0,86,62,39,30.36,30.01,9,1,9,0.00
2012-1-10,50.9,39.2,29.2,31.7,28.7,21.6,90,67,43,30.04,29.92,17,2,17,0.00
2012-1-11,50.2,37.8,24.0,41.9,29.7,22.2,94,75,45,30.13,29.79,16,2,16,0.22
2012-1-12,49.2,45.1,42.9,47.7,43.7,41.8,98,95,92,29.79,29.45,27,3,27,0.66
2012-1-13,47.6,36.0,28.2,46.2,27.7,13.6,98,73,48,29.89,29.27,28,4,28,0.08
2012-1-14,36.9,30.2,26.2,19.0,16.9,15.2,66,58,44,30.12,29.89,19,4,19,0.00
2012-1-15,30.7,22.8,15.5,19.1,6.0,0.5,77,50,29,30.62,30.12,18,4,18,0.00
2012-1-16,36.8,25.5,11.2,30.1,12.4,3.8,86,60,31,30.64,30.18,20,2,20,0.02
2012-1-17,54.4,42.5,34.1,48.2,39.7,30.1,97,90,79,30.19,29.58,20,3,20,0.21
2012-1-18,54.6,38.8,22.0,48.5,22.0,10.7,81,52,32,30.22,29.59,24,6,25,0.01
2012-1-19,36.7,27.6,15.7,24.9,17.8,10.9,85,67,49,30.28,29.97,13,1,13,0.00
2012-1-20,36.0,31.2,27.2,25.1,13.8,6.6,70,50,30,30.32,29.97,16,3,16,0.00
2012-1-21,29.1,26.4,23.9,24.3,21.0,9.6,91,81,44,30.34,29.99,13,2,14,0.00
2012-1-22,35.3,24.8,14.6,32.6,19.5,10.9,92,80,70,30.56,30.34,10,1,10,0.00
2012-1-23,51.2,38.5,33.5,50.7,37.2,32.0,99,95,90,30.43,29.91,16,1,16,0.53
2012-1-24,57.4,47.0,39.8,49.0,39.4,31.2,94,76,52,30.18,29.91,21,2,21,0.00
2012-1-25,51.2,41.2,35.0,31.7,29.7,26.8,83,64,44,30.35,30.17,14,2,14,0.00
2012-1-26,40.5,36.7,32.8,39.7,33.9,27.7,97,90,73,30.27,29.82,8,0,8,0.22
2012-1-27,59.7,47.9,39.4,58.4,43.2,31.2,100,85,61,29.91,29.38,25,4,25,0.48
2012-1-28,49.4,42.0,31.4,32.8,28.7,14.8,88,61,35,30.10,29.91,24,2,24,0.00
2012-1-29,46.4,38.8,29.8,20.8,16.2,12.0,54,40,28,30.24,30.06,21,3,24,0.00
2012-1-30,43.5,36.5,31.7,28.5,18.9,13.4,71,50,31,30.34,30.08,25,3,25,0.00
2012-1-31,62.1,46.0,29.1,33.2,27.8,17.7,80,51,32,30.28,30.05,12,2,12,0.00
2012-2-1,67.3,53.8,45.7,45.7,39.9,32.5,81,60,41,30.05,29.91,23,2,23,0.03
2012-2-2,48.9,41.7,35.3,38.6,31.7,22.0,88,68,55,30.29,30.01,22,3,22,0.00
2012-2-3,50.4,37.0,26.1,26.0,22.7,20.8,85,58,32,30.49,30.29,20,2,20,0.00
2012-2-4,45.0,35.4,25.2,29.6,25.9,22.5,92,70,47,30.39,30.13,7,0,7,0.00
2012-2-5,47.6,35.4,25.5,26.8,22.7,19.2,84,62,34,30.23,30.12,11,1,12,0.00
2012-2-6,54.6,38.8,23.6,30.1,25.2,19.3,87,61,36,30.22,30.02,13,2,13,0.00
2012-2-7,56.2,41.8,30.5,31.0,27.7,25.4,84,59,34,30.27,30.01,13,2,19,0.00
2012-2-8,39.7,33.0,29.2,30.3,25.7,18.7,94,76,45,30.33,30.13,6,1,8,0.01
2012-2-9,47.4,35.3,27.2,29.3,25.6,22.0,94,71,39,30.20,30.10,14,2,15,0.04
2012-2-10,48.1,36.2,25.2,31.4,25.0,21.7,89,67,39,30.18,29.94,11,1,11,0.00
2012-2-11,39.0,34.6,28.1,34.0,31.2,21.4,95,88,74,29.95,29.60,19,2,19,0.12
2012-2-12,34.9,26.6,19.1,21.3,13.6,6.5,76,58,42,30.04,29.74,17,6,28,0.01
2012-2-13,45.9,34.6,26.5,24.1,18.6,14.5,72,53,33,30.10,30.01,11,3,17,0.00
2012-2-14,50.2,39.5,29.7,36.8,25.7,15.4,82,61,29,30.15,30.00,11,1,11,0.00
2012-2-15,48.4,40.3,29.7,39.2,35.5,27.7,92,83,68,30.32,30.07,12,1,12,0.00
2012-2-16,42.0,35.3,26.7,40.2,33.7,25.2,97,94,88,30.33,30.05,7,0,7,0.12
2012-2-17,54.6,43.7,31.2,43.4,33.7,23.7,98,72,34,30.07,29.97,23,2,23,0.01
2012-2-18,52.4,40.7,28.3,37.6,26.2,19.8,90,59,34,30.12,29.89,17,2,18,0.03
2012-2-19,50.1,37.7,27.6,29.6,25.2,19.2,92,63,31,30.12,29.94,10,1,12,0.00
2012-2-20,52.7,37.8,26.7,22.9,19.5,14.8,69,50,26,30.37,29.99,19,4,19,0.00
2012-2-21,50.5,36.4,21.4,35.5,26.0,16.8,88,68,40,30.39,29.89,21,2,22,0.00
2012-2-22,60.7,46.4,30.8,39.2,33.0,25.8,96,65,27,29.89,29.49,16,2,16,0.00
2012-2-23,63.4,52.1,43.3,40.7,34.2,26.0,83,54,26,29.77,29.40,23,3,23,0.00
2012-2-24,47.2,42.0,37.9,42.5,37.9,29.0,96,86,50,29.72,29.38,21,3,25,0.30
2012-2-25,44.9,39.9,34.6,30.6,23.9,14.3,70,53,40,30.10,29.49,27,7,29,0.00
2012-2-26,50.0,36.9,28.0,23.5,17.3,12.5,83,47,30,30.47,30.10,22,4,22,0.00
2012-2-27,59.1,43.4,24.5,34.6,29.0,22.5,95,61,33,30.46,30.11,16,3,17,0.00
2012-2-28,57.7,44.8,34.9,31.8,24.1,21.0,72,46,25,30.42,30.17,15,3,20,0.00
2012-2-29,43.6,39.1,32.0,41.4,34.7,25.3,96,84,67,30.39,29.75,20,1,20,0.58
2012-3-1,46.7,41.9,36.8,42.6,39.3,34.9,96,91,81,29.98,29.66,15,2,15,0.05
2012-3-2,43.2,39.3,32.6,41.3,35.5,31.3,97,86,76,30.14,29.79,13,2,13,0.26
2012-3-3,59.1,48.7,42.4,48.3,37.4,20.0,98,71,27,29.79,29.51,17,2,17,0.08
2012-3-4,47.6,40.8,34.4,25.9,22.7,18.9,68,49,33,29.81,29.62,18,3,18,0.00
2012-3-5,47.9,37.0,27.9,25.3,17.1,8.0,73,46,28,30.43,29.81,17,3,18,0.00
2012-3-6,48.1,35.9,24.0,25.3,14.7,9.0,69,43,24,30.67,30.43,16,3,16,0.00
2012-3-7,64.5,47.8,30.1,45.1,32.9,25.2,88,60,28,30.61,30.34,14,3,16,0.00
2012-3-8,71.0,61.3,52.2,51.9,48.7,44.9,81,64,48,30.34,29.86,25,7,27,0.00
2012-3-9,63.8,46.8,37.2,52.8,29.6,15.7,86,53,30,30.31,29.86,22,5,24,0.04
2012-3-10,46.6,36.2,28.5,22.7,14.4,8.3,76,42,26,30.56,30.31,20,3,20,0.00
2012-3-11,61.4,44.4,26.7,31.8,26.8,19.3,86,54,30,30.57,30.37,16,2,16,0.00
2012-3-12,69.5,54.0,35.4,43.5,35.7,31.5,87,54,30,30.40,30.14,13,1,13,0.00
2012-3-13,77.8,62.7,51.3,57.9,52.9,43.3,96,72,46,30.14,29.93,15,2,15,0.13
2012-3-14,76.0,61.3,46.9,55.0,37.7,19.3,93,51,12,30.19,30.00,18,2,18,0.00
2012-3-15,53.6,47.0,43.9,43.7,41.5,34.2,95,82,60,30.34,30.18,13,2,13,0.00
2012-3-16,53.6,47.0,43.3,48.8,44.8,41.9,97,92,83,30.31,30.14,9,1,9,0.00
2012-3-17,68.3,51.4,39.2,52.1,45.1,38.4,99,81,53,30.40,30.21,15,2,15,0.00
2012-3-18,69.5,52.9,44.8,53.9,47.4,43.3,96,83,55,30.40,30.22,10,1,10,0.00
2012-3-19,79.8,61.7,45.1,56.8,50.0,44.0,98,69,39,30.25,30.15,16,1,16,0.00
2012-3-20,76.1,62.7,54.1,61.9,56.8,51.2,98,83,54,30.34,30.24,11,1,12,0.00
2012-3-21,69.8,61.0,55.5,60.0,57.0,53.7,97,88,66,30.37,30.28,7,0,7,0.00
2012-3-22,78.5,64.7,56.0,63.2,59.1,54.9,98,84,54,30.31,30.10,9,1,9,0.00
2012-3-23,80.8,63.6,51.7,60.3,52.5,39.8,98,70,45,30.11,30.04,15,2,15,0.00
2012-3-24,64.1,54.5,48.0,48.6,38.9,25.0,93,60,24,30.09,29.96,22,2,22,0.08
2012-3-25,56.9,49.1,44.9,46.7,44.4,42.0,94,84,67,29.97,29.75,11,1,13,0.00
2012-3-26,58.1,46.4,34.9,45.4,27.0,8.1,98,54,20,30.17,29.73,26,7,31,0.00
2012-3-27,57.2,41.4,29.7,27.6,7.7,-0.3,71,27,10,30.34,30.17,19,4,19,0.00
2012-3-28,69.7,52.8,35.1,50.7,38.0,24.8,80,58,41,30.18,29.56,10,2,14,0.01
2012-3-29,60.2,53.7,43.6,50.8,37.2,28.4,73,54,41,30.06,29.60,26,6,26,0.00
2012-3-30,62.4,47.0,32.2,38.1,29.0,25.1,82,52,27,30.12,29.94,13,3,13,0.00
2012-3-31,45.1,41.8,39.5,41.3,39.8,37.5,95,93,77,30.02,29.86,13,2,13,0.56
2012-4-1,53.4,46.7,40.9,46.0,41.8,39.5,96,84,63,29.93,29.62,9,1,10,0.11
2012-4-2,60.9,49.3,38.6,46.1,30.3,16.4,97,54,22,29.92,29.60,31,6,31,0.12
2012-4-3,68.9,50.8,31.3,33.7,22.3,12.7,80,39,12,30.00,29.80,19,3,19,0.00
2012-4-4,75.3,59.6,47.3,41.1,31.6,19.0,70,39,18,29.81,29.53,15,4,23,0.00
2012-4-5,63.4,49.9,34.6,31.8,28.0,23.4,81,45,26,29.95,29.76,15,3,23,0.00
2012-4-6,63.3,48.1,31.5,27.6,22.4,15.2,77,40,16,30.07,29.92,19,4,19,0.00
2012-4-7,64.3,49.7,31.5,23.2,17.9,11.7,70,32,14,30.14,29.98,25,5,25,0.00
2012-4-8,70.2,55.5,36.7,33.7,22.7,16.8,67,31,13,30.06,29.69,28,4,28,0.00
2012-4-9,64.8,56.6,48.1,31.1,25.0,19.8,44,30,20,29.81,29.67,31,6,31,0.00
2012-4-10,62.3,52.8,42.4,37.1,30.0,23.3,75,44,23,29.84,29.70,17,3,17,0.00
2012-4-11,56.7,47.6,39.3,35.5,31.7,26.7,80,56,32,29.94,29.81,17,4,17,0.00
2012-4-12,62.3,51.0,41.6,37.5,33.3,28.5,75,53,30,30.16,29.94,17,4,17,0.00
2012-4-13,68.7,52.5,34.4,34.3,30.3,24.6,84,48,20,30.25,30.14,13,1,14,0.00
2012-4-14,76.2,58.7,37.6,39.3,33.9,23.9,90,46,16,30.25,30.05,14,1,14,0.00
2012-4-15,81.9,68.9,59.5,58.5,52.8,39.0,81,58,39,30.07,29.97,13,1,16,0.00
2012-4-16,91.7,74.4,54.4,61.0,56.5,50.6,93,59,26,30.05,29.90,15,1,15,0.00
2012-4-17,84.7,72.1,56.2,59.5,43.7,29.2,77,41,15,30.17,29.93,18,3,18,0.00
2012-4-18,61.7,55.4,49.0,47.0,36.7,30.4,88,51,34,30.29,30.15,13,2,13,0.02
2012-4-19,76.7,58.8,47.2,51.6,46.7,39.6,96,69,29,30.16,30.00,8,1,9,0.04
2012-4-20,73.6,59.6,44.6,56.1,50.7,43.1,97,75,48,30.06,29.87,14,1,14,0.00
2012-4-21,82.0,67.1,56.2,59.6,56.5,50.8,95,72,36,29.87,29.64,19,2,19,0.03
2012-4-22,56.2,50.2,46.5,52.1,47.2,45.2,96,90,79,29.81,29.30,18,3,18,1.06
2012-4-23,49.6,46.6,41.1,46.8,43.1,36.1,97,88,75,29.45,29.15,11,2,13,0.07
2012-4-24,61.6,49.7,38.2,36.8,31.8,22.8,86,55,25,29.74,29.44,18,2,20,0.00
2012-4-25,67.8,51.0,34.2,40.1,33.7,27.1,95,58,25,29.93,29.74,16,1,16,0.00
2012-4-26,62.9,50.8,35.7,55.7,46.4,33.6,95,85,67,29.94,29.61,11,1,13,0.00
2012-4-27,58.4,51.2,38.3,56.3,33.7,26.0,95,53,34,30.18,29.61,22,5,24,0.01
2012-4-28,60.5,47.5,31.2,32.6,28.9,25.0,92,53,28,30.30,30.14,12,2,12,0.00
2012-4-29,69.0,53.5,35.2,34.7,23.8,11.2,88,39,11,30.27,30.09,18,3,18,0.00
2012-4-30,68.0,51.9,32.0,41.3,29.4,17.5,85,46,21,30.37,30.21,13,1,13,0.00
2012-5-1,78.3,61.0,50.6,61.0,53.4,41.3,96,78,52,30.21,29.99,11,1,11,0.50
2012-5-2,59.4,52.5,50.3,55.5,50.1,48.6,95,92,86,30.20,30.07,10,1,10,0.29
2012-5-3,62.7,55.7,50.0,57.5,53.2,48.6,98,92,81,30.23,30.07,10,0,13,0.09
2012-5-4,82.0,64.8,54.6,68.7,60.3,53.9,98,87,59,30.12,29.84,15,1,15,0.04
2012-5-5,69.4,60.5,56.3,64.4,57.3,54.5,97,90,75,30.07,29.85,13,1,13,0.07
2012-5-6,69.1,59.1,49.8,55.1,51.4,44.4,95,77,53,30.13,30.04,12,1,12,0.00
2012-5-7,69.7,57.1,47.3,53.9,48.7,44.1,94,75,52,30.16,30.10,14,1,14,0.01
2012-5-8,72.8,62.6,54.8,61.1,53.6,47.0,90,73,52,30.11,29.83,17,2,17,0.04
2012-5-9,71.7,65.3,59.8,66.6,62.2,51.5,97,90,62,29.84,29.60,12,1,12,0.29
2012-5-10,68.8,59.4,48.8,53.8,45.7,35.7,96,64,33,29.88,29.54,19,3,21,0.15
2012-5-11,74.6,57.7,40.4,44.2,38.5,31.1,96,56,21,30.15,29.88,18,2,18,0.00
2012-5-12,83.6,63.7,41.5,52.2,44.3,38.9,96,57,21,30.26,30.15,11,1,11,0.00
2012-5-13,85.8,69.7,53.9,59.1,53.3,47.5,87,59,29,30.21,30.09,11,1,12,0.00
2012-5-14,69.9,65.6,62.0,62.8,60.1,56.3,97,83,65,30.17,30.10,10,0,10,0.11
2012-5-15,72.5,64.9,61.0,68.4,63.5,60.2,98,95,86,30.12,29.93,12,1,12,0.51
2012-5-16,83.9,70.9,62.0,67.9,62.7,55.2,99,78,39,29.95,29.84,10,0,10,0.12
2012-5-17,77.5,64.4,52.5,60.3,45.2,37.2,90,54,26,30.16,29.92,14,2,14,0.00
2012-5-18,76.5,60.0,45.1,50.8,45.0,38.4,96,63,29,30.24,30.15,13,1,13,0.00
2012-5-19,84.5,64.2,44.0,50.2,45.8,42.1,95,58,25,30.20,30.11,11,1,11,0.00
2012-5-20,82.8,65.9,49.2,61.7,48.3,19.5,91,62,10,30.24,30.17,17,2,17,0.00
2012-5-21,65.0,61.7,59.6,63.2,60.4,58.3,98,95,89,30.21,29.99,11,1,11,0.58
2012-5-22,77.8,66.7,61.2,66.5,63.5,60.6,98,90,65,29.99,29.82,7,0,8,0.06
2012-5-23,82.3,71.2,64.0,68.2,65.4,63.1,99,83,61,30.04,29.87,12,1,13,0.01
2012-5-24,78.5,69.1,64.0,69.7,65.1,62.5,96,88,72,30.19,30.04,11,1,12,0.01
2012-5-25,83.2,69.6,62.9,74.0,66.6,61.8,98,91,68,30.20,30.12,8,0,8,0.00
2012-5-26,86.2,72.3,63.8,74.2,68.9,63.2,99,90,65,30.17,30.08,13,1,13,0.01
2012-5-27,84.4,74.2,66.6,75.7,70.0,66.0,99,88,69,30.18,30.00,9,0,9,0.01
2012-5-28,95.2,80.2,67.4,75.7,69.6,65.8,95,73,43,30.02,29.91,10,1,10,0.00
2012-5-29,92.9,80.5,68.1,74.2,70.4,63.9,97,74,43,29.92,29.70,20,2,20,0.00
2012-5-30,79.3,71.2,65.0,69.2,66.9,63.2,99,87,62,29.80,29.72,7,0,7,0.01
2012-5-31,85.0,71.6,60.0,63.4,56.9,49.9,98,66,32,29.95,29.72,12,2,12,0.00
2012-6-1,75.7,64.2,53.8,65.5,57.8,51.8,97,81,56,30.00,29.72,17,2,17,0.01
2012-6-2,77.5,67.9,54.8,67.1,56.6,47.7,98,70,42,29.80,29.66,14,3,14,0.00
2012-6-3,78.8,62.1,51.0,63.7,54.2,49.7,97,78,41,29.80,29.67,21,1,21,0.00
2012-6-4,66.8,58.6,54.0,58.6,54.7,50.1,98,88,65,29.83,29.62,15,1,17,0.00
2012-6-5,71.0,58.5,46.5,55.3,49.3,45.2,97,74,42,29.97,29.82,11,1,11,0.01
2012-6-6,76.7,61.5,46.7,57.3,52.0,45.6,99,74,43,30.02,29.94,7,0,7,0.00
2012-6-7,82.2,66.2,53.7,59.3,55.2,49.7,97,72,36,30.00,29.92,14,1,14,0.00
2012-6-8,86.7,68.9,52.4,60.5,55.7,51.2,98,68,34,29.98,29.86,11,1,12,0.00
2012-6-9,85.5,71.3,58.0,64.4,58.6,54.7,94,67,39,30.00,29.89,13,1,13,0.00
2012-6-10,94.5,76.0,64.0,70.3,64.8,62.0,98,72,38,30.17,29.99,13,1,13,0.00
2012-6-11,79.6,71.3,63.6,67.3,62.8,57.7,93,75,59,30.23,30.16,21,2,21,0.00
2012-6-12,72.9,67.6,65.5,68.8,65.1,60.3,98,92,81,30.18,29.88,13,2,14,0.01
2012-6-13,79.3,70.2,63.7,66.4,62.8,57.7,98,79,50,30.08,29.85,14,2,20,0.00
2012-6-14,79.7,69.7,60.3,64.1,61.5,58.3,95,77,55,30.27,30.08,15,1,15,0.00
2012-6-15,83.5,68.5,55.6,61.3,55.7,50.2,98,68,38,30.31,30.25,13,1,13,0.00
2012-6-16,82.8,67.9,53.3,58.7,54.1,50.4,96,66,35,30.35,30.23,11,1,11,0.00
2012-6-17,78.3,65.8,56.0,61.2,57.7,53.2,91,76,54,30.26,30.09,11,1,12,0.00
2012-6-18,75.3,62.8,51.2,59.8,55.2,49.8,97,78,53,30.18,30.10,9,1,9,0.00
2012-6-19,82.8,71.1,62.5,70.8,63.8,56.5,92,79,62,30.18,30.08,8,0,8,0.00
2012-6-20,100.0,83.7,67.2,75.6,71.1,65.7,96,70,40,30.11,29.96,11,1,11,0.00
2012-6-21,100.0,85.5,71.3,74.4,71.2,68.5,95,66,38,29.97,29.80,13,1,13,0.00
2012-6-22,96.2,79.8,70.7,75.3,71.4,67.3,96,78,46,29.85,29.75,14,1,14,0.00
2012-6-23,90.0,77.1,64.8,70.0,61.8,53.8,97,65,33,30.00,29.83,17,2,17,0.00
2012-6-24,90.1,74.8,58.6,70.0,60.4,55.6,95,65,34,30.04,29.90,9,1,9,0.00
2012-6-25,84.0,72.4,63.6,68.3,61.6,48.4,97,71,45,29.90,29.66,19,2,19,0.00
2012-6-26,77.9,66.9,54.2,54.7,50.6,46.3,80,57,35,29.82,29.73,24,4,24,0.00
2012-6-27,86.4,70.2,53.9,58.5,53.0,49.2,90,59,30,29.88,29.76,20,2,20,0.00
2012-6-28,94.2,77.1,59.3,68.6,60.6,55.8,90,61,33,29.88,29.74,15,1,15,0.00
2012-6-29,99.2,82.6,69.4,76.2,70.5,62.6,93,69,44,29.75,29.60,13,1,13,0.00
2012-6-30,97.3,83.4,71.5,72.7,67.6,59.2,91,63,30,29.82,29.67,13,1,13,0.00
2012-7-1,99.2,82.4,66.1,72.1,67.6,63.3,93,65,36,29.88,29.77,14,1,14,0.00
2012-7-2,92.5,78.4,63.6,66.4,60.6,54.6,87,59,30,29.95,29.87,15,2,15,0.00
2012-7-3,96.3,78.7,61.1,71.2,63.0,56.4,94,64,28,29.99,29.84,13,0,13,0.00
2012-7-4,98.2,82.7,70.5,74.9,70.1,66.4,96,68,40,29.89,29.74,12,1,12,0.08
2012-7-5,98.7,85.4,72.7,75.2,68.5,59.7,90,61,30,29.87,29.74,15,2,15,0.00
2012-7-6,98.7,81.1,64.1,69.9,60.7,47.3,90,56,19,29.95,29.86,9,1,9,0.00
2012-7-7,100.8,84.1,72.0,77.4,71.5,67.9,95,70,35,29.90,29.76,26,1,27,0.16
2012-7-8,94.8,82.0,73.1,72.5,70.5,64.9,95,71,39,29.89,29.81,11,1,11,0.00
2012-7-9,91.2,78.2,69.0,71.4,63.0,57.4,87,62,36,29.99,29.86,9,1,9,0.00
2012-7-10,92.8,76.5,65.8,65.7,61.7,54.5,90,64,32,30.09,29.98,11,1,11,0.00
2012-7-11,88.8,76.6,64.8,69.3,63.3,57.5,94,67,42,30.20,30.09,10,1,10,0.00
2012-7-12,91.6,78.2,65.7,66.1,62.4,56.8,92,62,36,30.22,30.13,14,1,14,0.00
2012-7-13,90.5,78.6,66.7,71.8,66.4,61.8,89,68,45,30.22,30.15,5,0,5,0.00
2012-7-14,86.4,76.6,68.7,70.1,66.6,61.8,94,73,49,30.24,30.16,12,1,12,0.02
2012-7-15,90.7,78.7,71.0,76.2,71.6,66.9,95,80,59,30.17,29.94,18,1,20,0.11
2012-7-16,94.8,80.6,68.3,73.7,70.6,67.1,98,75,45,29.97,29.81,15,1,15,0.02
2012-7-17,100.0,84.5,67.4,71.6,67.9,63.3,96,62,33,29.88,29.77,11,1,11,0.00
2012-7-18,102.8,84.7,75.7,79.1,72.3,69.0,90,69,39,29.90,29.77,18,1,27,0.02
2012-7-19,77.5,75.4,72.2,72.6,69.4,64.4,90,82,69,29.99,29.83,8,0,10,0.02
2012-7-20,72.9,66.1,62.8,68.4,64.1,61.2,97,94,81,30.07,29.92,14,1,14,0.73
2012-7-21,82.0,70.2,61.7,63.7,60.1,55.7,98,73,43,30.15,30.04,10,1,11,0.06
2012-7-22,87.0,73.4,60.8,68.6,63.9,59.4,97,74,49,30.18,30.10,8,1,8,0.01
2012-7-23,93.5,79.5,66.7,74.8,69.4,64.3,95,73,49,30.14,29.84,11,1,11,0.01
2012-7-24,98.0,84.1,72.6,74.2,68.5,58.3,92,63,35,29.84,29.60,20,3,23,0.00
2012-7-25,90.7,77.1,61.9,62.3,56.6,52.3,78,52,30,29.93,29.76,15,2,15,0.00
2012-7-26,94.7,77.3,65.0,76.3,68.0,59.4,96,75,53,29.83,29.64,31,1,31,0.39
2012-7-27,93.0,80.1,71.0,75.0,71.9,69.5,97,79,48,29.88,29.70,12,1,12,0.00
2012-7-28,89.9,76.1,67.4,77.7,72.2,66.0,97,88,64,29.98,29.87,11,1,11,0.23
2012-7-29,85.9,72.9,67.3,71.1,68.3,66.1,98,87,57,30.06,29.93,14,0,14,0.18
2012-7-30,86.8,73.5,65.3,72.2,67.6,64.7,99,84,57,30.13,30.06,11,1,12,0.00
2012-7-31,85.8,73.5,65.7,69.0,66.7,64.2,97,81,56,30.10,29.92,9,0,9,0.00
2012-8-1,82.1,72.8,67.8,75.4,69.3,65.7,97,89,72,29.95,29.84,9,0,11,0.15
2012-8-2,95.0,78.4,65.8,74.9,69.5,65.2,99,78,41,29.94,29.86,9,0,9,0.00
2012-8-3,94.7,80.2,69.7,78.4,72.4,68.8,98,79,49,30.11,29.94,12,0,12,0.00
2012-8-4,92.9,80.2,70.2,76.9,73.1,68.9,98,81,52,30.21,30.11,12,1,12,0.00
2012-8-5,94.9,81.3,72.4,77.2,73.7,68.2,97,80,48,30.19,29.97,19,2,19,0.29
2012-8-6,91.0,79.8,66.6,74.1,69.0,62.5,97,73,43,30.05,29.96,11,1,11,0.00
2012-8-7,87.0,73.8,61.3,69.0,64.4,59.7,96,75,48,30.04,29.97,6,0,6,0.00
2012-8-8,93.0,78.7,67.5,74.4,69.2,64.4,96,76,42,30.01,29.93,6,0,7,0.00
2012-8-9,92.7,77.4,69.8,74.8,70.3,65.6,98,82,46,29.98,29.87,9,1,9,0.01
2012-8-10,82.0,75.4,70.5,75.3,72.6,68.8,98,91,73,29.90,29.76,12,1,12,0.45
2012-8-11,88.8,77.9,70.7,74.9,71.8,68.7,98,83,53,29.94,29.80,14,1,14,0.03
2012-8-12,89.7,76.7,67.1,70.9,66.5,61.8,96,74,43,29.98,29.89,10,1,10,0.02
2012-8-13,90.4,74.4,60.7,65.8,62.3,58.3,98,70,35,30.04,29.96,11,1,11,0.01
2012-8-14,79.0,70.4,63.3,72.3,67.5,61.8,96,91,79,30.00,29.88,12,0,12,0.00
2012-8-15,89.6,76.3,67.3,72.8,69.6,65.5,99,82,53,29.91,29.83,12,1,12,0.01
2012-8-16,89.6,74.8,63.4,66.4,62.8,55.8,97,71,36,29.95,29.87,18,2,18,0.01
2012-8-17,90.7,75.7,61.6,70.3,65.0,59.8,96,72,43,29.92,29.78,13,1,14,0.00
2012-8-18,85.8,71.4,60.5,68.0,62.5,56.2,97,77,38,29.95,29.85,12,1,12,0.01
2012-8-19,75.8,65.8,54.6,65.1,59.0,53.2,96,80,54,30.00,29.93,5,0,5,0.01
2012-8-20,84.0,71.1,60.8,65.4,61.5,57.9,96,74,44,29.95,29.85,8,0,8,0.00
2012-8-21,85.5,72.4,61.0,65.4,62.1,58.0,96,73,42,30.11,29.94,8,0,8,0.01
2012-8-22,89.3,73.5,60.9,68.5,62.9,58.6,97,73,36,30.16,30.10,10,0,10,0.00
2012-8-23,89.7,74.3,60.8,68.1,63.5,59.4,98,73,37,30.18,30.11,11,0,11,0.01
2012-8-24,91.8,75.9,62.3,67.1,63.9,57.8,97,71,34,30.19,30.14,9,1,9,0.00
2012-8-25,85.3,73.9,65.2,70.3,66.6,63.0,96,79,50,30.28,30.19,12,1,12,0.00
2012-8-26,85.7,74.1,65.3,69.3,65.7,62.9,94,77,50,30.33,30.23,12,1,13,0.00
2012-8-27,81.6,72.9,65.0,75.3,69.9,63.5,97,90,76,30.24,29.97,15,1,15,0.07
2012-8-28,91.5,77.8,65.4,73.3,68.2,59.3,97,76,39,29.97,29.83,14,2,14,0.02
2012-8-29,85.3,70.4,58.7,63.0,59.4,56.0,96,72,38,30.05,29.93,11,1,12,0.01
2012-8-30,88.3,69.9,54.3,63.2,57.9,53.0,98,71,35,30.13,30.04,11,1,11,0.00
2012-8-31,94.5,75.9,59.4,70.4,62.6,57.7,98,69,32,30.09,29.93,11,1,11,0.00
2012-9-1,96.1,79.8,67.7,70.2,65.2,57.6,92,66,29,30.07,29.95,13,2,13,0.00
2012-9-2,81.0,74.6,70.8,72.2,70.1,68.4,95,86,70,30.10,30.02,9,0,9,0.00
2012-9-3,76.6,72.4,70.2,71.5,69.2,66.5,97,90,78,30.14,30.08,13,1,13,0.00
2012-9-4,80.5,73.7,70.5,76.6,72.3,68.8,98,95,84,30.10,29.85,12,1,12,0.01
2012-9-5,87.6,77.4,65.5,76.1,72.1,64.0,97,85,61,29.86,29.79,12,2,13,0.01
2012-9-6,80.5,70.6,62.4,70.4,66.4,61.2,97,87,67,29.93,29.85,5,0,5,0.00
2012-9-7,92.1,77.1,66.3,73.8,69.8,65.4,99,80,54,29.94,29.84,9,1,9,0.00
2012-9-8,87.0,74.2,64.7,75.9,69.5,63.2,97,86,60,29.88,29.58,24,2,24,0.00
2012-9-9,83.8,69.4,59.0,63.3,58.9,52.8,98,73,35,29.93,29.80,9,1,9,0.00
2012-9-10,78.2,63.1,51.4,56.4,50.9,44.8,95,69,34,30.17,29.92,16,2,16,0.00
2012-9-11,79.7,60.2,44.8,55.4,48.8,43.5,98,71,33,30.31,30.17,10,1,10,0.00
2012-9-12,85.8,64.9,47.5,59.7,53.0,46.3,98,71,33,30.38,30.31,8,1,8,0.00
2012-9-13,85.1,67.1,51.5,61.8,56.9,50.2,98,74,39,30.40,30.29,10,0,10,0.00
2012-9-14,83.7,68.3,53.4,64.8,58.7,52.2,99,75,41,30.31,30.11,9,1,9,0.00
2012-9-15,76.9,65.6,53.1,61.0,53.1,47.7,94,67,40,30.17,30.09,17,3,19,0.00
2012-9-16,79.8,62.0,48.1,54.7,50.1,46.2,96,70,34,30.16,30.05,10,1,10,0.00
2012-9-17,80.7,63.9,46.8,60.3,51.3,45.5,98,69,36,30.14,30.04,9,1,12,0.00
2012-9-18,78.4,70.5,66.2,71.0,67.3,60.2,97,90,75,30.04,29.62,22,3,22,0.22
2012-9-19,76.1,63.8,49.6,66.6,51.2,43.4,97,67,33,30.20,29.76,18,3,18,0.02
2012-9-20,74.0,59.6,44.9,61.1,52.3,43.7,97,79,41,30.22,30.11,12,1,12,0.00
2012-9-21,79.4,63.9,52.7,62.2,56.3,51.4,98,79,48,30.13,30.02,10,1,10,0.00
2012-9-22,83.7,67.2,52.2,69.2,61.1,50.8,98,83,54,30.03,29.78,13,1,13,0.00
2012-9-23,73.9,61.3,47.8,63.5,48.7,42.2,96,67,34,30.15,29.89,17,2,17,0.00
2012-9-24,71.0,55.8,46.1,48.7,44.3,38.3,95,70,32,30.21,30.13,12,1,13,0.00
2012-9-25,75.3,58.8,41.4,55.7,48.9,40.0,98,74,41,30.23,30.14,17,1,17,0.00
2012-9-26,80.2,68.4,59.9,64.4,60.7,55.5,92,78,55,30.16,30.03,12,1,12,0.00
2012-9-27,78.0,67.3,62.9,65.9,63.3,61.2,98,88,62,30.19,30.07,5,0,5,0.01
2012-9-28,80.8,69.2,62.7,69.9,64.8,59.1,98,87,59,30.16,29.94,9,1,9,0.00
2012-9-29,68.2,61.8,54.9,59.2,56.0,53.2,95,82,64,29.97,29.89,10,1,10,0.01
2012-9-30,71.7,58.9,50.7,56.3,51.4,48.5,98,79,47,29.91,29.80,13,1,13,0.00
2012-10-1,75.7,59.1,45.9,54.0,49.7,44.8,98,75,41,29.99,29.86,12,1,12,0.00
2012-10-2,68.0,63.1,59.2,64.0,60.1,53.5,97,90,74,30.03,29.96,7,0,7,0.00
2012-10-3,74.7,67.6,63.2,71.6,66.5,62.3,99,96,90,30.14,29.99,5,0,5,0.01
2012-10-4,75.5,68.9,61.4,71.4,67.0,60.3,99,94,85,30.16,30.05,6,0,6,0.00
2012-10-5,85.3,67.0,54.6,62.7,59.0,54.0,100,79,41,30.10,29.95,10,1,10,0.00
2012-10-6,78.7,63.1,48.7,64.3,56.7,46.7,98,81,58,30.03,29.80,20,2,20,0.01
2012-10-7,52.4,47.7,41.5,48.3,45.5,40.2,98,92,80,30.15,30.02,4,0,4,0.00
2012-10-8,54.9,47.5,38.2,47.5,43.4,37.4,99,87,65,30.31,30.14,8,0,10,0.00
2012-10-9,59.2,53.1,46.9,55.2,50.8,45.3,96,92,82,30.25,30.09,9,1,9,0.01
2012-10-10,69.8,58.9,53.2,59.2,52.4,39.7,98,81,52,30.09,29.84,21,1,21,0.00
2012-10-11,65.0,51.9,43.3,41.1,37.6,31.9,87,61,32,30.25,30.01,16,2,16,0.00
2012-10-12,61.4,47.1,36.9,44.6,36.7,29.5,98,70,37,30.47,30.11,22,3,23,0.01
2012-10-13,58.6,43.1,29.0,39.7,30.3,23.0,95,66,26,30.55,30.33,9,1,9,0.67
2012-10-14,49.0,47.9,42.0,46.5,45.4,39.1,93,91,88,30.34,30.23,7,2,7,0.02
2012-10-15,49.0,49.0,49.0,46.5,46.5,46.5,91,91,91,30.24,30.24,2,2,2,0.02
2012-10-16,49.0,49.0,49.0,46.5,46.5,46.5,91,91,91,30.24,30.24,2,2,2,0.02
2012-10-17,49.0,49.0,49.0,46.5,46.5,46.5,91,91,91,30.24,30.24,2,2,2,0.02
2012-10-18,49.0,49.0,49.0,46.5,46.5,46.5,91,91,91,30.24,30.24,2,2,2,0.02
2012-10-19,49.0,49.0,49.0,46.5,46.5,46.5,91,91,91,30.24,30.24,2,2,2,0.02
2012-10-20,49.0,49.0,49.0,46.5,46.5,46.5,91,91,91,30.24,30.24,2,2,2,0.02
2012-10-21,69.3,54.5,45.6,46.6,44.4,40.2,91,73,36,30.24,29.98,17,2,17,0.01
2012-10-22,72.7,55.0,41.9,46.8,43.7,40.1,96,70,37,30.16,30.05,19,2,20,0.00
2012-10-23,70.5,55.4,44.9,55.2,49.5,43.3,96,82,55,30.16,30.07,5,0,5,0.01
2012-10-24,75.0,60.9,54.4,60.2,55.8,52.9,95,84,59,30.21,30.09,9,1,9,0.00
2012-10-25,62.0,59.4,57.4,57.1,55.8,54.0,94,88,83,30.28,30.20,7,0,7,0.00
2012-10-26,68.6,61.8,58.3,59.5,57.7,55.9,94,87,71,30.25,30.12,6,0,6,0.01
2012-10-27,66.2,61.1,56.5,58.7,55.0,51.5,91,81,65,30.12,29.92,10,1,11,0.00
2012-10-28,58.7,57.1,55.9,54.1,50.0,44.5,89,77,64,29.92,29.65,22,3,22,0.01
2012-10-29,60.0,55.0,52.3,57.7,50.5,47.4,95,85,73,29.65,28.60,36,7,36,0.03
2012-10-31,44.5,42.1,40.8,39.7,39.1,38.4,92,89,83,29.63,29.61,2,0,2,0.00
2012-11-1,51.9,46.0,40.1,41.1,39.4,36.5,93,78,66,29.66,29.60,13,1,13,0.00
2012-11-2,53.1,47.4,42.0,40.1,37.4,33.7,79,68,52,29.82,29.66,16,3,16,0.00
2012-11-3,52.8,45.1,39.9,34.3,32.1,29.5,75,61,46,30.00,29.82,24,5,24,0.00
2012-11-4,51.2,42.9,36.1,34.7,31.4,29.1,77,64,52,30.03,29.97,16,3,16,0.00
2012-11-5,50.9,39.8,27.8,31.4,27.6,24.0,86,62,42,30.21,30.00,15,3,15,0.00
2012-11-6,50.9,34.2,23.0,27.5,23.9,20.5,92,69,36,30.26,30.08,11,1,11,0.00
2012-11-7,40.1,35.4,32.0,33.7,29.3,21.2,96,80,53,30.09,29.82,19,3,19,0.06
2012-11-8,48.6,39.2,32.6,34.0,29.1,23.1,96,69,39,29.98,29.79,20,3,20,0.32
2012-11-9,58.4,43.7,34.6,33.6,29.4,25.7,88,60,31,30.24,29.97,17,3,17,0.00
2012-11-10,58.5,44.4,32.0,41.8,36.5,30.2,96,76,47,30.44,30.23,7,0,7,0.00
2012-11-11,69.8,50.4,34.1,50.3,43.0,32.6,98,78,48,30.51,30.42,9,1,9,0.00
2012-11-12,70.0,54.6,39.5,58.3,50.0,38.5,98,86,60,30.48,30.18,21,2,21,0.00
2012-11-13,61.8,47.3,34.6,59.0,41.9,29.0,94,82,64,30.47,30.13,24,3,24,0.10
2012-11-14,54.4,38.6,28.4,32.1,28.9,25.6,93,71,42,30.54,30.46,14,1,14,0.00
2012-11-15,52.4,36.9,27.2,33.0,29.0,24.4,91,75,45,30.48,30.32,8,1,8,0.00
2012-11-16,53.1,37.7,28.0,31.8,29.2,25.5,91,73,41,30.46,30.31,10,1,10,0.00
2012-11-17,58.2,39.2,26.5,34.8,29.8,24.4,93,73,39,30.65,30.46,11,1,11,0.00
2012-11-18,53.3,38.6,27.6,39.5,32.7,25.8,95,81,55,30.68,30.56,11,1,11,0.00
2012-11-19,53.7,42.1,29.6,40.6,36.0,28.1,96,80,60,30.56,30.26,11,1,11,0.00
2012-11-20,55.6,43.1,31.4,39.0,33.9,29.6,95,72,42,30.26,30.12,8,0,9,0.00
2012-11-21,58.5,41.7,29.9,36.3,31.3,27.0,95,70,35,30.25,30.15,11,1,11,0.00
2012-11-22,61.7,41.5,28.3,42.8,33.9,25.3,93,77,47,30.29,30.16,7,0,8,0.00
2012-11-23,58.9,43.9,29.2,44.7,36.9,27.9,98,78,50,30.16,29.72,12,1,12,0.00
2012-11-24,49.8,40.8,35.9,43.3,26.1,23.0,83,56,45,29.91,29.72,25,6,25,0.00
2012-11-25,43.1,35.8,27.9,25.1,23.0,20.7,82,60,47,30.00,29.90,19,3,19,0.00
2012-11-26,52.7,36.5,26.7,29.3,24.7,22.5,89,65,33,30.27,30.00,16,1,16,0.00
2012-11-27,35.0,33.5,28.8,33.4,30.6,24.3,96,89,75,30.30,30.21,7,1,7,0.33
2012-11-28,45.0,35.5,28.5,33.5,28.5,23.7,96,77,50,30.33,30.20,18,2,18,0.15
2012-11-29,46.4,35.3,27.8,29.2,25.5,22.1,88,68,48,30.41,30.31,13,1,13,0.01
2012-11-30,47.9,36.0,25.3,38.4,30.2,23.5,94,81,51,30.44,30.34,9,0,9,0.00
2012-12-1,44.7,40.5,38.0,38.3,35.6,32.4,93,82,74,30.52,30.43,10,1,10,0.00
2012-12-2,51.2,43.5,38.6,46.5,41.6,37.5,98,93,80,30.44,30.14,7,0,8,0.06
2012-12-3,68.0,52.3,42.4,54.5,47.4,41.5,99,85,56,30.27,30.13,11,0,12,0.00
2012-12-4,67.8,55.0,44.0,56.8,50.7,42.5,97,86,67,30.28,29.99,15,2,15,0.03
2012-12-5,58.4,50.3,33.7,52.8,38.7,20.8,90,66,43,30.29,29.94,22,5,28,0.01
2012-12-6,45.9,34.1,26.5,24.5,21.9,19.9,88,63,37,30.40,30.27,12,1,12,0.00
2012-12-7,40.1,33.6,25.4,39.0,31.4,22.7,96,92,84,30.31,30.03,3,0,3,0.13
2012-12-8,50.4,45.7,40.0,48.5,44.6,39.0,98,96,92,30.04,29.90,7,0,7,0.19
2012-12-9,48.3,44.4,41.5,47.7,43.1,39.8,98,95,90,30.26,30.01,11,1,11,0.19
2012-12-10,59.3,51.7,44.6,59.3,51.2,44.0,100,98,97,30.01,29.57,9,0,9,0.02
2012-12-11,55.5,45.5,35.9,55.2,38.6,31.5,99,77,56,30.22,29.59,17,2,18,0.03
2012-12-12,48.3,37.2,30.0,33.9,29.6,26.5,95,76,45,30.45,30.21,10,1,10,0.00
2012-12-13,52.9,36.5,26.7,30.7,26.6,23.9,93,71,35,30.48,30.34,9,0,9,0.00
2012-12-14,52.9,36.1,23.4,32.4,26.3,21.9,95,71,38,30.35,30.18,12,1,12,0.00
2012-12-15,51.5,38.4,26.7,37.9,31.5,24.4,94,77,55,30.34,30.20,9,0,9,0.00
2012-12-16,52.5,45.9,41.4,48.9,43.0,35.3,96,90,78,30.21,29.91,16,1,16,0.11
2012-12-17,45.9,43.2,40.8,45.4,42.2,39.7,98,96,94,29.92,29.62,9,1,9,0.12
2012-12-18,58.5,47.8,41.2,49.8,43.5,34.1,99,86,63,29.69,29.48,19,3,23,0.30
2012-12-19,52.2,42.2,30.5,34.3,30.5,26.9,87,64,43,30.16,29.69,26,4,26,0.00
2012-12-20,45.9,36.7,28.0,43.9,31.3,25.5,93,81,57,30.24,29.71,15,1,15,0.12
2012-12-21,56.9,44.7,35.7,55.5,38.6,28.3,95,80,64,29.72,29.12,43,6,43,0.82
2012-12-22,42.3,37.7,34.7,31.7,26.1,21.6,88,64,46,29.90,29.39,31,6,31,0.00
2012-12-23,47.4,38.1,30.8,27.1,23.6,16.8,77,57,31,30.01,29.89,14,2,14,0.00
2012-12-24,41.1,33.5,24.0,32.2,26.2,20.9,95,76,55,30.12,29.93,8,0,8,0.03
2012-12-25,43.2,36.7,30.2,37.0,32.0,26.1,97,83,71,30.27,29.91,15,3,15,0.08
2012-12-26,38.9,32.0,25.7,37.6,28.9,23.4,95,88,74,30.30,29.49,27,3,27,0.42
2012-12-27,40.4,36.8,30.7,38.5,31.3,21.7,95,81,67,29.91,29.29,28,7,28,0.19
2012-12-28,43.7,33.9,26.1,28.2,24.5,21.8,89,69,53,30.11,29.90,19,3,21,0.00
2012-12-29,34.2,30.7,25.7,31.3,28.0,22.9,95,90,82,30.07,29.53,8,1,8,0.01
2012-12-30,38.6,32.6,28.2,28.0,20.6,14.0,86,62,48,30.24,29.66,28,7,30,0.06
2012-12-31,39.2,33.5,27.5,29.2,22.6,14.5,72,64,56,30.25,29.93,12,2,12,0.02
2013-1-1,40.4,37.3,28.0,31.4,27.8,15.3,79,68,58,30.05,29.86,13,3,14,0.01